sensor_id;sensor_type;location;lat;lon;timestamp;P1;durP1;ratioP1;P2;durP2;ratioP2
54145;SDS011;65909;49.422;7.738;2023-09-12T00:01:19;9.85;;;5.90;;
54145;SDS011;65909;49.422;7.738;2023-09-12T00:03:44;13.73;;;6.80;;
54145;SDS011;65909;49.422;7.738;2023-09-12T00:06:10;14.43;;;6.65;;
54145;SDS011;65909;49.422;7.738;2023-09-12T00:08:35;16.63;;;7.13;;
54145;SDS011;65909;49.422;7.738;2023-09-12T00:11:04;10.95;;;6.65;;
54145;SDS011;65909;49.422;7.738;2023-09-12T00:13:31;11.98;;;6.93;;
54145;SDS011;65909;49.422;7.738;2023-09-12T00:15:57;12.23;;;6.70;;
54145;SDS011;65909;49.422;7.738;2023-09-12T00:18:23;11.65;;;7.07;;
54145;SDS011;65909;49.422;7.738;2023-09-12T00:20:49;18.77;;;7.43;;
54145;SDS011;65909;49.422;7.738;2023-09-12T00:23:15;16.45;;;7.05;;
54145;SDS011;65909;49.422;7.738;2023-09-12T00:25:41;11.75;;;6.95;;
54145;SDS011;65909;49.422;7.738;2023-09-12T00:28:06;11.20;;;6.40;;
54145;SDS011;65909;49.422;7.738;2023-09-12T00:30:31;11.45;;;6.60;;
54145;SDS011;65909;49.422;7.738;2023-09-12T00:32:57;12.88;;;6.85;;
54145;SDS011;65909;49.422;7.738;2023-09-12T00:35:22;17.05;;;7.47;;
54145;SDS011;65909;49.422;7.738;2023-09-12T00:37:47;15.65;;;7.25;;
54145;SDS011;65909;49.422;7.738;2023-09-12T00:40:13;14.25;;;7.22;;
54145;SDS011;65909;49.422;7.738;2023-09-12T00:42:38;14.07;;;7.13;;
54145;SDS011;65909;49.422;7.738;2023-09-12T00:45:04;10.05;;;6.93;;
54145;SDS011;65909;49.422;7.738;2023-09-12T00:47:29;7.90;;;6.40;;
54145;SDS011;65909;49.422;7.738;2023-09-12T00:49:56;14.73;;;7.30;;
54145;SDS011;65909;49.422;7.738;2023-09-12T00:52:24;11.93;;;6.75;;
54145;SDS011;65909;49.422;7.738;2023-09-12T00:54:50;13.63;;;6.97;;
54145;SDS011;65909;49.422;7.738;2023-09-12T00:57:16;13.48;;;7.10;;
54145;SDS011;65909;49.422;7.738;2023-09-12T00:59:42;16.75;;;7.28;;
54145;SDS011;65909;49.422;7.738;2023-09-12T01:02:08;9.38;;;5.97;;
54145;SDS011;65909;49.422;7.738;2023-09-12T01:04:34;13.40;;;6.63;;
54145;SDS011;65909;49.422;7.738;2023-09-12T01:07:02;10.00;;;7.00;;
54145;SDS011;65909;49.422;7.738;2023-09-12T01:09:29;11.82;;;6.57;;
54145;SDS011;65909;49.422;7.738;2023-09-12T01:11:55;11.45;;;6.80;;
54145;SDS011;65909;49.422;7.738;2023-09-12T01:14:21;15.27;;;7.53;;
54145;SDS011;65909;49.422;7.738;2023-09-12T01:16:46;13.50;;;6.80;;
54145;SDS011;65909;49.422;7.738;2023-09-12T01:19:12;11.65;;;6.68;;
54145;SDS011;65909;49.422;7.738;2023-09-12T01:25:14;14.80;;;8.15;;
54145;SDS011;65909;49.422;7.738;2023-09-12T01:27:55;11.88;;;7.47;;
54145;SDS011;65909;49.422;7.738;2023-09-12T01:30:23;15.32;;;6.68;;
54145;SDS011;65909;49.422;7.738;2023-09-12T01:32:50;14.68;;;7.15;;
54145;SDS011;65909;49.422;7.738;2023-09-12T01:35:17;14.65;;;7.20;;
54145;SDS011;65909;49.422;7.738;2023-09-12T01:37:42;13.05;;;8.45;;
54145;SDS011;65909;49.422;7.738;2023-09-12T01:40:07;13.63;;;7.88;;
54145;SDS011;65909;49.422;7.738;2023-09-12T01:42:37;19.10;;;8.00;;
54145;SDS011;65909;49.422;7.738;2023-09-12T01:45:05;18.05;;;7.90;;
54145;SDS011;65909;49.422;7.738;2023-09-12T01:47:34;12.30;;;7.93;;
54145;SDS011;65909;49.422;7.738;2023-09-12T01:50:00;12.38;;;7.03;;
54145;SDS011;65909;49.422;7.738;2023-09-12T01:52:26;16.30;;;7.25;;
54145;SDS011;65909;49.422;7.738;2023-09-12T01:54:53;12.15;;;7.18;;
54145;SDS011;65909;49.422;7.738;2023-09-12T01:57:20;13.63;;;7.43;;
54145;SDS011;65909;49.422;7.738;2023-09-12T01:59:46;18.98;;;8.23;;
54145;SDS011;65909;49.422;7.738;2023-09-12T02:02:14;13.27;;;7.50;;
54145;SDS011;65909;49.422;7.738;2023-09-12T02:04:40;19.77;;;8.68;;
54145;SDS011;65909;49.422;7.738;2023-09-12T02:07:06;15.50;;;8.38;;
54145;SDS011;65909;49.422;7.738;2023-09-12T02:09:31;11.40;;;7.13;;
54145;SDS011;65909;49.422;7.738;2023-09-12T02:11:56;16.20;;;7.18;;
54145;SDS011;65909;49.422;7.738;2023-09-12T02:14:22;14.15;;;6.80;;
54145;SDS011;65909;49.422;7.738;2023-09-12T02:16:47;16.00;;;6.97;;
54145;SDS011;65909;49.422;7.738;2023-09-12T02:19:12;15.50;;;7.07;;
54145;SDS011;65909;49.422;7.738;2023-09-12T02:21:38;14.10;;;8.30;;
54145;SDS011;65909;49.422;7.738;2023-09-12T02:24:03;13.30;;;6.72;;
54145;SDS011;65909;49.422;7.738;2023-09-12T02:26:28;11.88;;;7.25;;
54145;SDS011;65909;49.422;7.738;2023-09-12T02:28:54;15.60;;;6.97;;
54145;SDS011;65909;49.422;7.738;2023-09-12T02:31:19;17.05;;;7.88;;
54145;SDS011;65909;49.422;7.738;2023-09-12T02:33:44;15.82;;;6.82;;
54145;SDS011;65909;49.422;7.738;2023-09-12T02:36:10;12.32;;;7.55;;
54145;SDS011;65909;49.422;7.738;2023-09-12T02:38:35;13.75;;;7.25;;
54145;SDS011;65909;49.422;7.738;2023-09-12T02:41:01;13.02;;;6.80;;
54145;SDS011;65909;49.422;7.738;2023-09-12T02:43:27;12.13;;;8.15;;
54145;SDS011;65909;49.422;7.738;2023-09-12T02:45:53;11.82;;;7.40;;
54145;SDS011;65909;49.422;7.738;2023-09-12T02:48:18;16.80;;;7.78;;
54145;SDS011;65909;49.422;7.738;2023-09-12T02:50:44;14.07;;;6.93;;
54145;SDS011;65909;49.422;7.738;2023-09-12T02:53:09;10.55;;;6.50;;
54145;SDS011;65909;49.422;7.738;2023-09-12T02:55:38;16.90;;;7.70;;
54145;SDS011;65909;49.422;7.738;2023-09-12T02:58:04;15.13;;;8.32;;
54145;SDS011;65909;49.422;7.738;2023-09-12T03:00:30;12.70;;;7.00;;
54145;SDS011;65909;49.422;7.738;2023-09-12T03:02:55;18.00;;;6.72;;
54145;SDS011;65909;49.422;7.738;2023-09-12T03:05:20;13.65;;;7.55;;
54145;SDS011;65909;49.422;7.738;2023-09-12T03:07:46;10.32;;;7.05;;
54145;SDS011;65909;49.422;7.738;2023-09-12T03:10:11;12.30;;;7.53;;
54145;SDS011;65909;49.422;7.738;2023-09-12T03:12:36;13.23;;;7.22;;
54145;SDS011;65909;49.422;7.738;2023-09-12T03:15:02;22.42;;;7.95;;
54145;SDS011;65909;49.422;7.738;2023-09-12T03:17:28;14.45;;;7.72;;
54145;SDS011;65909;49.422;7.738;2023-09-12T03:19:53;13.20;;;7.25;;
54145;SDS011;65909;49.422;7.738;2023-09-12T03:22:19;13.98;;;7.63;;
54145;SDS011;65909;49.422;7.738;2023-09-12T03:24:44;16.35;;;7.60;;
54145;SDS011;65909;49.422;7.738;2023-09-12T03:27:10;11.93;;;7.25;;
54145;SDS011;65909;49.422;7.738;2023-09-12T03:29:35;15.38;;;7.18;;
54145;SDS011;65909;49.422;7.738;2023-09-12T03:32:00;12.82;;;6.90;;
54145;SDS011;65909;49.422;7.738;2023-09-12T03:34:26;11.95;;;6.78;;
54145;SDS011;65909;49.422;7.738;2023-09-12T03:36:51;15.43;;;7.72;;
54145;SDS011;65909;49.422;7.738;2023-09-12T03:39:16;13.75;;;7.03;;
54145;SDS011;65909;49.422;7.738;2023-09-12T03:41:42;12.95;;;7.32;;
54145;SDS011;65909;49.422;7.738;2023-09-12T03:44:07;10.68;;;6.97;;
54145;SDS011;65909;49.422;7.738;2023-09-12T03:46:33;12.23;;;6.97;;
54145;SDS011;65909;49.422;7.738;2023-09-12T03:48:58;12.07;;;7.45;;
54145;SDS011;65909;49.422;7.738;2023-09-12T03:51:23;13.43;;;7.43;;
54145;SDS011;65909;49.422;7.738;2023-09-12T03:53:49;11.20;;;6.72;;
54145;SDS011;65909;49.422;7.738;2023-09-12T03:56:15;14.07;;;6.57;;
54145;SDS011;65909;49.422;7.738;2023-09-12T03:58:41;10.95;;;6.90;;
54145;SDS011;65909;49.422;7.738;2023-09-12T04:01:06;14.60;;;6.80;;
54145;SDS011;65909;49.422;7.738;2023-09-12T04:03:31;11.05;;;6.80;;
54145;SDS011;65909;49.422;7.738;2023-09-12T04:05:57;13.30;;;7.03;;
54145;SDS011;65909;49.422;7.738;2023-09-12T04:08:22;13.00;;;7.15;;
54145;SDS011;65909;49.422;7.738;2023-09-12T04:10:47;12.75;;;7.03;;
54145;SDS011;65909;49.422;7.738;2023-09-12T04:13:13;11.30;;;7.82;;
54145;SDS011;65909;49.422;7.738;2023-09-12T04:15:38;12.98;;;7.15;;
54145;SDS011;65909;49.422;7.738;2023-09-12T04:18:04;17.30;;;6.95;;
54145;SDS011;65909;49.422;7.738;2023-09-12T04:20:30;15.68;;;7.82;;
54145;SDS011;65909;49.422;7.738;2023-09-12T04:22:55;17.15;;;9.05;;
54145;SDS011;65909;49.422;7.738;2023-09-12T04:25:20;14.35;;;7.80;;
54145;SDS011;65909;49.422;7.738;2023-09-12T04:27:46;13.23;;;8.00;;
54145;SDS011;65909;49.422;7.738;2023-09-12T04:30:11;16.92;;;8.40;;
54145;SDS011;65909;49.422;7.738;2023-09-12T04:32:37;19.15;;;7.68;;
54145;SDS011;65909;49.422;7.738;2023-09-12T04:35:02;10.52;;;7.22;;
54145;SDS011;65909;49.422;7.738;2023-09-12T04:37:28;16.20;;;7.20;;
54145;SDS011;65909;49.422;7.738;2023-09-12T04:39:53;11.18;;;7.72;;
54145;SDS011;65909;49.422;7.738;2023-09-12T04:42:19;15.90;;;7.40;;
54145;SDS011;65909;49.422;7.738;2023-09-12T04:44:44;9.95;;;6.97;;
54145;SDS011;65909;49.422;7.738;2023-09-12T04:47:09;14.30;;;7.75;;
54145;SDS011;65909;49.422;7.738;2023-09-12T04:49:35;15.18;;;7.53;;
54145;SDS011;65909;49.422;7.738;2023-09-12T04:52:00;13.77;;;7.35;;
54145;SDS011;65909;49.422;7.738;2023-09-12T04:54:26;12.82;;;7.30;;
54145;SDS011;65909;49.422;7.738;2023-09-12T04:56:51;15.32;;;7.55;;
54145;SDS011;65909;49.422;7.738;2023-09-12T04:59:17;12.52;;;7.13;;
54145;SDS011;65909;49.422;7.738;2023-09-12T05:01:42;12.88;;;7.13;;
54145;SDS011;65909;49.422;7.738;2023-09-12T05:04:07;13.77;;;7.28;;
54145;SDS011;65909;49.422;7.738;2023-09-12T05:06:34;12.38;;;6.70;;
54145;SDS011;65909;49.422;7.738;2023-09-12T05:09:00;11.43;;;7.22;;
54145;SDS011;65909;49.422;7.738;2023-09-12T05:11:25;18.73;;;8.00;;
54145;SDS011;65909;49.422;7.738;2023-09-12T05:13:51;11.02;;;7.10;;
54145;SDS011;65909;49.422;7.738;2023-09-12T05:16:16;12.75;;;7.72;;
54145;SDS011;65909;49.422;7.738;2023-09-12T05:18:41;14.40;;;7.93;;
54145;SDS011;65909;49.422;7.738;2023-09-12T05:21:07;18.48;;;7.65;;
54145;SDS011;65909;49.422;7.738;2023-09-12T05:23:32;11.45;;;7.35;;
54145;SDS011;65909;49.422;7.738;2023-09-12T05:25:58;13.10;;;6.85;;
54145;SDS011;65909;49.422;7.738;2023-09-12T05:28:23;10.90;;;7.90;;
54145;SDS011;65909;49.422;7.738;2023-09-12T05:30:48;14.00;;;7.93;;
54145;SDS011;65909;49.422;7.738;2023-09-12T05:33:17;16.55;;;8.30;;
54145;SDS011;65909;49.422;7.738;2023-09-12T05:35:42;13.43;;;7.35;;
54145;SDS011;65909;49.422;7.738;2023-09-12T05:38:09;15.63;;;7.85;;
54145;SDS011;65909;49.422;7.738;2023-09-12T05:40:34;13.43;;;6.45;;
54145;SDS011;65909;49.422;7.738;2023-09-12T05:43:00;15.23;;;7.88;;
54145;SDS011;65909;49.422;7.738;2023-09-12T05:45:25;13.90;;;7.55;;
54145;SDS011;65909;49.422;7.738;2023-09-12T05:47:51;13.80;;;7.57;;
54145;SDS011;65909;49.422;7.738;2023-09-12T05:50:16;13.60;;;8.15;;
54145;SDS011;65909;49.422;7.738;2023-09-12T05:52:42;13.70;;;7.18;;
54145;SDS011;65909;49.422;7.738;2023-09-12T05:55:08;14.75;;;7.75;;
54145;SDS011;65909;49.422;7.738;2023-09-12T05:57:33;16.92;;;7.88;;
54145;SDS011;65909;49.422;7.738;2023-09-12T05:59:59;20.00;;;7.50;;
54145;SDS011;65909;49.422;7.738;2023-09-12T06:02:25;11.07;;;7.10;;
54145;SDS011;65909;49.422;7.738;2023-09-12T06:04:50;10.43;;;6.85;;
54145;SDS011;65909;49.422;7.738;2023-09-12T06:07:16;10.52;;;7.70;;
54145;SDS011;65909;49.422;7.738;2023-09-12T06:09:41;17.80;;;8.13;;
54145;SDS011;65909;49.422;7.738;2023-09-12T06:12:07;15.13;;;8.13;;
54145;SDS011;65909;49.422;7.738;2023-09-12T06:14:32;9.77;;;7.88;;
54145;SDS011;65909;49.422;7.738;2023-09-12T06:16:57;16.05;;;7.93;;
54145;SDS011;65909;49.422;7.738;2023-09-12T06:19:23;17.83;;;7.65;;
54145;SDS011;65909;49.422;7.738;2023-09-12T06:21:48;15.90;;;7.55;;
54145;SDS011;65909;49.422;7.738;2023-09-12T06:24:15;17.05;;;8.18;;
54145;SDS011;65909;49.422;7.738;2023-09-12T06:26:42;17.50;;;8.35;;
54145;SDS011;65909;49.422;7.738;2023-09-12T06:29:08;13.75;;;7.60;;
54145;SDS011;65909;49.422;7.738;2023-09-12T06:31:34;14.88;;;7.60;;
54145;SDS011;65909;49.422;7.738;2023-09-12T06:34:00;10.63;;;8.27;;
54145;SDS011;65909;49.422;7.738;2023-09-12T06:36:26;12.77;;;7.40;;
54145;SDS011;65909;49.422;7.738;2023-09-12T06:38:54;11.60;;;7.97;;
54145;SDS011;65909;49.422;7.738;2023-09-12T06:41:20;15.00;;;7.60;;
54145;SDS011;65909;49.422;7.738;2023-09-12T06:43:45;11.90;;;7.53;;
54145;SDS011;65909;49.422;7.738;2023-09-12T06:46:11;20.00;;;7.85;;
54145;SDS011;65909;49.422;7.738;2023-09-12T06:48:36;15.15;;;7.65;;
54145;SDS011;65909;49.422;7.738;2023-09-12T06:51:04;13.00;;;7.78;;
54145;SDS011;65909;49.422;7.738;2023-09-12T06:53:31;12.10;;;6.05;;
54145;SDS011;65909;49.422;7.738;2023-09-12T06:55:56;18.75;;;8.30;;
54145;SDS011;65909;49.422;7.738;2023-09-12T06:58:22;12.77;;;7.13;;
54145;SDS011;65909;49.422;7.738;2023-09-12T07:00:48;17.08;;;6.90;;
54145;SDS011;65909;49.422;7.738;2023-09-12T07:03:13;14.00;;;7.07;;
54145;SDS011;65909;49.422;7.738;2023-09-12T07:05:39;16.98;;;6.60;;
54145;SDS011;65909;49.422;7.738;2023-09-12T07:08:06;9.70;;;6.60;;
54145;SDS011;65909;49.422;7.738;2023-09-12T07:10:31;14.40;;;7.65;;
54145;SDS011;65909;49.422;7.738;2023-09-12T07:12:56;17.55;;;6.68;;
54145;SDS011;65909;49.422;7.738;2023-09-12T07:15:22;15.75;;;7.57;;
54145;SDS011;65909;49.422;7.738;2023-09-12T07:17:47;15.80;;;6.88;;
54145;SDS011;65909;49.422;7.738;2023-09-12T07:20:13;10.32;;;7.07;;
54145;SDS011;65909;49.422;7.738;2023-09-12T07:22:38;13.82;;;6.63;;
54145;SDS011;65909;49.422;7.738;2023-09-12T07:25:05;16.73;;;8.23;;
54145;SDS011;65909;49.422;7.738;2023-09-12T07:27:31;13.25;;;6.45;;
54145;SDS011;65909;49.422;7.738;2023-09-12T07:29:56;10.60;;;5.65;;
54145;SDS011;65909;49.422;7.738;2023-09-12T07:32:22;9.55;;;5.00;;
54145;SDS011;65909;49.422;7.738;2023-09-12T07:34:47;14.55;;;5.85;;
54145;SDS011;65909;49.422;7.738;2023-09-12T07:37:13;10.15;;;5.97;;
54145;SDS011;65909;49.422;7.738;2023-09-12T07:39:39;12.25;;;5.40;;
54145;SDS011;65909;49.422;7.738;2023-09-12T07:42:04;10.77;;;5.22;;
54145;SDS011;65909;49.422;7.738;2023-09-12T07:44:30;11.68;;;5.35;;
54145;SDS011;65909;49.422;7.738;2023-09-12T07:46:55;10.00;;;5.65;;
54145;SDS011;65909;49.422;7.738;2023-09-12T07:49:20;14.98;;;5.32;;
54145;SDS011;65909;49.422;7.738;2023-09-12T07:51:46;9.10;;;4.93;;
54145;SDS011;65909;49.422;7.738;2023-09-12T07:54:11;11.43;;;5.15;;
54145;SDS011;65909;49.422;7.738;2023-09-12T07:56:37;11.63;;;4.80;;
54145;SDS011;65909;49.422;7.738;2023-09-12T07:59:02;9.80;;;5.40;;
54145;SDS011;65909;49.422;7.738;2023-09-12T08:01:28;9.20;;;5.63;;
54145;SDS011;65909;49.422;7.738;2023-09-12T08:03:53;9.88;;;5.10;;
54145;SDS011;65909;49.422;7.738;2023-09-12T08:06:19;12.55;;;4.97;;
54145;SDS011;65909;49.422;7.738;2023-09-12T08:08:44;9.93;;;4.68;;
54145;SDS011;65909;49.422;7.738;2023-09-12T08:11:10;9.32;;;5.10;;
54145;SDS011;65909;49.422;7.738;2023-09-12T08:13:35;8.88;;;4.75;;
54145;SDS011;65909;49.422;7.738;2023-09-12T08:16:00;12.10;;;4.55;;
54145;SDS011;65909;49.422;7.738;2023-09-12T08:18:27;10.18;;;4.15;;
54145;SDS011;65909;49.422;7.738;2023-09-12T08:20:55;6.93;;;4.03;;
54145;SDS011;65909;49.422;7.738;2023-09-12T08:23:21;9.15;;;4.55;;
54145;SDS011;65909;49.422;7.738;2023-09-12T08:25:47;10.45;;;4.78;;
54145;SDS011;65909;49.422;7.738;2023-09-12T08:28:12;6.90;;;4.50;;
54145;SDS011;65909;49.422;7.738;2023-09-12T08:30:37;9.43;;;4.47;;
54145;SDS011;65909;49.422;7.738;2023-09-12T08:33:03;12.98;;;4.60;;
54145;SDS011;65909;49.422;7.738;2023-09-12T08:35:28;9.63;;;4.85;;
54145;SDS011;65909;49.422;7.738;2023-09-12T08:37:54;11.25;;;5.75;;
54145;SDS011;65909;49.422;7.738;2023-09-12T08:40:20;10.82;;;4.90;;
54145;SDS011;65909;49.422;7.738;2023-09-12T08:42:45;8.48;;;4.40;;
54145;SDS011;65909;49.422;7.738;2023-09-12T08:47:42;11.13;;;5.07;;
54145;SDS011;65909;49.422;7.738;2023-09-12T08:50:14;6.82;;;4.15;;
54145;SDS011;65909;49.422;7.738;2023-09-12T08:52:41;7.18;;;3.78;;
54145;SDS011;65909;49.422;7.738;2023-09-12T08:55:07;8.75;;;4.32;;
54145;SDS011;65909;49.422;7.738;2023-09-12T08:57:33;6.90;;;4.40;;
54145;SDS011;65909;49.422;7.738;2023-09-12T09:00:01;10.60;;;4.45;;
54145;SDS011;65909;49.422;7.738;2023-09-12T09:02:31;8.05;;;4.72;;
54145;SDS011;65909;49.422;7.738;2023-09-12T09:04:58;10.80;;;4.25;;
54145;SDS011;65909;49.422;7.738;2023-09-12T09:07:23;11.35;;;4.65;;
54145;SDS011;65909;49.422;7.738;2023-09-12T09:09:49;9.52;;;4.82;;
54145;SDS011;65909;49.422;7.738;2023-09-12T09:12:18;7.47;;;4.10;;
54145;SDS011;65909;49.422;7.738;2023-09-12T09:14:44;9.13;;;4.22;;
54145;SDS011;65909;49.422;7.738;2023-09-12T09:17:09;8.90;;;4.20;;
54145;SDS011;65909;49.422;7.738;2023-09-12T09:19:42;7.30;;;4.07;;
54145;SDS011;65909;49.422;7.738;2023-09-12T09:22:09;9.48;;;4.25;;
54145;SDS011;65909;49.422;7.738;2023-09-12T09:24:35;9.20;;;4.50;;
54145;SDS011;65909;49.422;7.738;2023-09-12T09:27:00;10.00;;;4.43;;
54145;SDS011;65909;49.422;7.738;2023-09-12T09:29:27;9.65;;;3.95;;
54145;SDS011;65909;49.422;7.738;2023-09-12T09:32:01;9.20;;;4.40;;
54145;SDS011;65909;49.422;7.738;2023-09-12T09:34:27;11.18;;;4.55;;
54145;SDS011;65909;49.422;7.738;2023-09-12T09:36:54;10.15;;;4.55;;
54145;SDS011;65909;49.422;7.738;2023-09-12T09:39:25;7.20;;;4.70;;
54145;SDS011;65909;49.422;7.738;2023-09-12T09:41:54;9.63;;;4.10;;
54145;SDS011;65909;49.422;7.738;2023-09-12T09:44:24;8.77;;;4.50;;
54145;SDS011;65909;49.422;7.738;2023-09-12T09:46:52;11.48;;;5.50;;
54145;SDS011;65909;49.422;7.738;2023-09-12T09:49:20;10.90;;;4.80;;
54145;SDS011;65909;49.422;7.738;2023-09-12T09:51:46;10.65;;;4.57;;
54145;SDS011;65909;49.422;7.738;2023-09-12T09:54:13;13.10;;;4.80;;
54145;SDS011;65909;49.422;7.738;2023-09-12T09:56:45;6.30;;;4.30;;
54145;SDS011;65909;49.422;7.738;2023-09-12T09:59:19;6.60;;;4.63;;
54145;SDS011;65909;49.422;7.738;2023-09-12T10:01:48;10.65;;;4.68;;
54145;SDS011;65909;49.422;7.738;2023-09-12T10:04:14;11.68;;;5.30;;
54145;SDS011;65909;49.422;7.738;2023-09-12T10:06:40;11.45;;;5.03;;
54145;SDS011;65909;49.422;7.738;2023-09-12T10:09:09;11.13;;;4.78;;
54145;SDS011;65909;49.422;7.738;2023-09-12T10:11:37;15.93;;;5.80;;
54145;SDS011;65909;49.422;7.738;2023-09-12T10:14:04;9.70;;;5.22;;
54145;SDS011;65909;49.422;7.738;2023-09-12T10:16:31;10.30;;;4.25;;
54145;SDS011;65909;49.422;7.738;2023-09-12T10:19:06;10.02;;;4.35;;
54145;SDS011;65909;49.422;7.738;2023-09-12T10:21:52;10.98;;;4.85;;
54145;SDS011;65909;49.422;7.738;2023-09-12T10:24:27;12.80;;;4.95;;
54145;SDS011;65909;49.422;7.738;2023-09-12T10:26:53;9.65;;;5.10;;
54145;SDS011;65909;49.422;7.738;2023-09-12T10:29:20;13.88;;;4.88;;
54145;SDS011;65909;49.422;7.738;2023-09-12T10:31:46;6.82;;;5.20;;
54145;SDS011;65909;49.422;7.738;2023-09-12T10:34:12;6.45;;;5.38;;
54145;SDS011;65909;49.422;7.738;2023-09-12T10:36:40;9.27;;;4.80;;
54145;SDS011;65909;49.422;7.738;2023-09-12T10:39:06;13.05;;;5.22;;
54145;SDS011;65909;49.422;7.738;2023-09-12T10:41:33;10.35;;;4.68;;
54145;SDS011;65909;49.422;7.738;2023-09-12T10:44:03;11.90;;;5.75;;
54145;SDS011;65909;49.422;7.738;2023-09-12T10:46:35;11.57;;;4.60;;
54145;SDS011;65909;49.422;7.738;2023-09-12T10:49:03;9.38;;;4.75;;
54145;SDS011;65909;49.422;7.738;2023-09-12T10:51:32;9.18;;;5.80;;
54145;SDS011;65909;49.422;7.738;2023-09-12T10:53:57;10.48;;;4.95;;
54145;SDS011;65909;49.422;7.738;2023-09-12T10:56:23;6.90;;;5.35;;
54145;SDS011;65909;49.422;7.738;2023-09-12T11:01:29;7.53;;;4.45;;
54145;SDS011;65909;49.422;7.738;2023-09-12T11:06:52;11.63;;;4.80;;
54145;SDS011;65909;49.422;7.738;2023-09-12T11:09:18;12.88;;;5.22;;
54145;SDS011;65909;49.422;7.738;2023-09-12T11:11:47;14.43;;;5.45;;
54145;SDS011;65909;49.422;7.738;2023-09-12T11:14:14;10.40;;;5.78;;
54145;SDS011;65909;49.422;7.738;2023-09-12T11:17:01;14.50;;;5.18;;
54145;SDS011;65909;49.422;7.738;2023-09-12T11:19:42;9.75;;;4.75;;
54145;SDS011;65909;49.422;7.738;2023-09-12T11:22:23;13.35;;;4.93;;
54145;SDS011;65909;49.422;7.738;2023-09-12T11:25:01;15.20;;;6.47;;
54145;SDS011;65909;49.422;7.738;2023-09-12T11:28:10;10.40;;;5.85;;
54145;SDS011;65909;49.422;7.738;2023-09-12T11:30:26;9.45;;;5.25;;
54145;SDS011;65909;49.422;7.738;2023-09-12T11:32:54;11.55;;;6.03;;
54145;SDS011;65909;49.422;7.738;2023-09-12T11:35:27;10.02;;;5.50;;
54145;SDS011;65909;49.422;7.738;2023-09-12T11:40:24;8.32;;;5.28;;
54145;SDS011;65909;49.422;7.738;2023-09-12T11:42:52;10.65;;;6.00;;
54145;SDS011;65909;49.422;7.738;2023-09-12T11:45:21;10.65;;;5.88;;
54145;SDS011;65909;49.422;7.738;2023-09-12T11:47:47;8.60;;;5.57;;
54145;SDS011;65909;49.422;7.738;2023-09-12T11:50:32;6.93;;;5.10;;
54145;SDS011;65909;49.422;7.738;2023-09-12T11:53:08;8.63;;;5.50;;
54145;SDS011;65909;49.422;7.738;2023-09-12T11:55:35;11.25;;;5.57;;
54145;SDS011;65909;49.422;7.738;2023-09-12T11:58:03;10.80;;;5.40;;
54145;SDS011;65909;49.422;7.738;2023-09-12T12:00:29;7.97;;;5.88;;
54145;SDS011;65909;49.422;7.738;2023-09-12T12:02:54;11.80;;;5.53;;
54145;SDS011;65909;49.422;7.738;2023-09-12T12:05:20;9.20;;;5.65;;
54145;SDS011;65909;49.422;7.738;2023-09-12T12:07:47;10.48;;;5.90;;
54145;SDS011;65909;49.422;7.738;2023-09-12T12:10:13;11.40;;;5.97;;
54145;SDS011;65909;49.422;7.738;2023-09-12T12:12:39;13.10;;;6.00;;
54145;SDS011;65909;49.422;7.738;2023-09-12T12:15:09;12.82;;;5.65;;
54145;SDS011;65909;49.422;7.738;2023-09-12T12:17:38;10.02;;;5.38;;
54145;SDS011;65909;49.422;7.738;2023-09-12T12:20:06;9.82;;;5.47;;
54145;SDS011;65909;49.422;7.738;2023-09-12T12:22:35;10.82;;;6.00;;
54145;SDS011;65909;49.422;7.738;2023-09-12T12:25:07;11.18;;;5.53;;
54145;SDS011;65909;49.422;7.738;2023-09-12T12:27:37;14.35;;;5.95;;
54145;SDS011;65909;49.422;7.738;2023-09-12T12:30:05;9.27;;;5.60;;
54145;SDS011;65909;49.422;7.738;2023-09-12T12:32:44;10.35;;;5.55;;
54145;SDS011;65909;49.422;7.738;2023-09-12T12:35:18;8.60;;;5.13;;
54145;SDS011;65909;49.422;7.738;2023-09-12T12:37:44;9.30;;;5.32;;
54145;SDS011;65909;49.422;7.738;2023-09-12T12:40:13;11.13;;;6.15;;
54145;SDS011;65909;49.422;7.738;2023-09-12T12:42:39;8.82;;;5.93;;
54145;SDS011;65909;49.422;7.738;2023-09-12T12:45:13;7.53;;;4.82;;
54145;SDS011;65909;49.422;7.738;2023-09-12T12:47:40;9.05;;;5.03;;
54145;SDS011;65909;49.422;7.738;2023-09-12T12:50:12;8.73;;;4.93;;
54145;SDS011;65909;49.422;7.738;2023-09-12T12:52:42;8.20;;;5.60;;
54145;SDS011;65909;49.422;7.738;2023-09-12T12:55:11;11.70;;;5.50;;
54145;SDS011;65909;49.422;7.738;2023-09-12T12:57:40;8.23;;;5.63;;
54145;SDS011;65909;49.422;7.738;2023-09-12T13:00:13;12.77;;;5.43;;
54145;SDS011;65909;49.422;7.738;2023-09-12T13:02:40;8.98;;;5.43;;
54145;SDS011;65909;49.422;7.738;2023-09-12T13:05:19;9.77;;;5.50;;
54145;SDS011;65909;49.422;7.738;2023-09-12T13:07:46;9.75;;;5.40;;
54145;SDS011;65909;49.422;7.738;2023-09-12T13:10:11;9.68;;;5.60;;
54145;SDS011;65909;49.422;7.738;2023-09-12T13:12:37;7.57;;;4.90;;
54145;SDS011;65909;49.422;7.738;2023-09-12T13:15:05;13.90;;;5.28;;
54145;SDS011;65909;49.422;7.738;2023-09-12T13:17:31;9.45;;;5.32;;
54145;SDS011;65909;49.422;7.738;2023-09-12T13:19:56;11.98;;;6.18;;
54145;SDS011;65909;49.422;7.738;2023-09-12T13:22:22;8.77;;;4.95;;
54145;SDS011;65909;49.422;7.738;2023-09-12T13:24:47;12.40;;;5.40;;
54145;SDS011;65909;49.422;7.738;2023-09-12T13:27:13;9.77;;;5.97;;
54145;SDS011;65909;49.422;7.738;2023-09-12T13:29:38;9.98;;;5.70;;
54145;SDS011;65909;49.422;7.738;2023-09-12T13:32:04;11.32;;;5.93;;
54145;SDS011;65909;49.422;7.738;2023-09-12T13:34:29;9.85;;;5.68;;
54145;SDS011;65909;49.422;7.738;2023-09-12T13:36:55;7.90;;;4.88;;
54145;SDS011;65909;49.422;7.738;2023-09-12T13:39:22;10.15;;;5.35;;
54145;SDS011;65909;49.422;7.738;2023-09-12T13:41:47;8.98;;;4.88;;
54145;SDS011;65909;49.422;7.738;2023-09-12T13:44:12;9.43;;;5.55;;
54145;SDS011;65909;49.422;7.738;2023-09-12T13:46:39;8.85;;;4.82;;
54145;SDS011;65909;49.422;7.738;2023-09-12T13:49:04;8.70;;;5.45;;
54145;SDS011;65909;49.422;7.738;2023-09-12T13:51:30;15.63;;;5.45;;
54145;SDS011;65909;49.422;7.738;2023-09-12T13:53:55;13.10;;;5.63;;
54145;SDS011;65909;49.422;7.738;2023-09-12T13:56:20;10.80;;;5.18;;
54145;SDS011;65909;49.422;7.738;2023-09-12T13:58:46;10.43;;;5.45;;
54145;SDS011;65909;49.422;7.738;2023-09-12T14:01:11;11.75;;;6.07;;
54145;SDS011;65909;49.422;7.738;2023-09-12T14:03:36;14.77;;;5.60;;
54145;SDS011;65909;49.422;7.738;2023-09-12T14:06:03;12.45;;;5.68;;
54145;SDS011;65909;49.422;7.738;2023-09-12T14:08:28;13.48;;;5.90;;
54145;SDS011;65909;49.422;7.738;2023-09-12T14:10:53;10.32;;;5.78;;
54145;SDS011;65909;49.422;7.738;2023-09-12T14:13:19;11.75;;;5.68;;
54145;SDS011;65909;49.422;7.738;2023-09-12T14:15:44;14.20;;;5.90;;
54145;SDS011;65909;49.422;7.738;2023-09-12T14:18:11;13.88;;;6.05;;
54145;SDS011;65909;49.422;7.738;2023-09-12T14:20:36;9.63;;;5.38;;
54145;SDS011;65909;49.422;7.738;2023-09-12T14:23:02;7.43;;;5.20;;
54145;SDS011;65909;49.422;7.738;2023-09-12T14:25:28;8.48;;;5.13;;
54145;SDS011;65909;49.422;7.738;2023-09-12T14:27:53;7.60;;;5.03;;
54145;SDS011;65909;49.422;7.738;2023-09-12T14:30:19;8.90;;;5.22;;
54145;SDS011;65909;49.422;7.738;2023-09-12T14:32:47;7.65;;;5.22;;
54145;SDS011;65909;49.422;7.738;2023-09-12T14:35:12;8.00;;;5.10;;
54145;SDS011;65909;49.422;7.738;2023-09-12T14:37:38;7.00;;;4.88;;
54145;SDS011;65909;49.422;7.738;2023-09-12T14:40:03;12.75;;;5.82;;
54145;SDS011;65909;49.422;7.738;2023-09-12T14:42:30;10.10;;;5.78;;
54145;SDS011;65909;49.422;7.738;2023-09-12T14:44:56;10.50;;;5.40;;
54145;SDS011;65909;49.422;7.738;2023-09-12T14:47:21;15.75;;;5.93;;
54145;SDS011;65909;49.422;7.738;2023-09-12T14:49:47;10.30;;;5.30;;